createdAt,value
2022-09-24T00:01:38.487Z,99.90
2022-09-24T00:04:06.523Z,99.90
2022-09-24T00:06:38.188Z,99.90
2022-09-24T00:09:05.153Z,99.90
2022-09-24T00:11:34.158Z,99.90
2022-09-24T00:14:01.049Z,99.90
2022-09-24T00:16:30.418Z,99.90
2022-09-24T00:18:58.165Z,99.90
2022-09-24T00:21:26.227Z,99.90
2022-09-24T00:24:03.041Z,99.90
2022-09-24T00:26:48.020Z,99.90
2022-09-24T00:29:17.969Z,99.90
2022-09-24T00:31:47.124Z,99.90
2022-09-24T00:34:13.765Z,99.90
2022-09-24T00:36:40.304Z,99.90
2022-09-24T00:39:09.287Z,99.90
2022-09-24T00:41:36.838Z,99.90
2022-09-24T00:44:23.325Z,99.90
2022-09-24T00:46:49.895Z,99.90
2022-09-24T00:49:17.744Z,99.90
2022-09-24T00:51:46.697Z,99.90
2022-09-24T00:54:16.591Z,99.90
2022-09-24T00:56:46.366Z,99.90
2022-09-24T00:59:17.254Z,99.90
2022-09-24T01:01:44.731Z,99.90
2022-09-24T01:04:13.727Z,99.90
2022-09-24T01:06:42.480Z,99.90
2022-09-24T01:09:09.362Z,99.90
2022-09-24T01:11:38.998Z,99.90
2022-09-24T01:14:05.493Z,99.90
2022-09-24T01:16:44.656Z,99.90
2022-09-24T01:19:29.893Z,99.90
2022-09-24T01:22:03.905Z,99.90
2022-09-24T01:24:37.276Z,99.90
2022-09-24T01:27:09.902Z,99.90
2022-09-24T01:29:42.069Z,99.90
2022-09-24T01:32:32.183Z,99.90
2022-09-24T01:35:04.944Z,99.90
2022-09-24T01:37:34.181Z,99.90
2022-09-24T01:40:01.704Z,99.90
2022-09-24T01:42:31.949Z,99.90
2022-09-24T01:45:01.712Z,99.90
2022-09-24T01:47:34.973Z,99.90
2022-09-24T01:50:02.926Z,99.90
2022-09-24T01:52:35.473Z,99.90
2022-09-24T01:55:03.550Z,99.90
2022-09-24T01:57:33.953Z,99.90
2022-09-24T02:00:09.828Z,99.90
2022-09-24T02:02:39.588Z,99.90
2022-09-24T02:05:13.059Z,99.90
2022-09-24T02:07:47.219Z,99.90
2022-09-24T02:10:17.703Z,99.90
2022-09-24T02:12:46.279Z,99.90
2022-09-24T02:15:27.793Z,99.90
2022-09-24T02:18:00.192Z,99.90
2022-09-24T02:20:30.642Z,99.90
2022-09-24T02:22:57.360Z,99.90
2022-09-24T02:25:28.169Z,99.90
2022-09-24T02:27:54.845Z,99.90
2022-09-24T02:30:21.455Z,99.90
2022-09-24T02:32:49.467Z,99.90
2022-09-24T02:35:16.379Z,99.90
2022-09-24T02:37:44.372Z,99.90
2022-09-24T02:40:15.688Z,99.90
2022-09-24T02:42:43.304Z,99.90
2022-09-24T02:45:10.168Z,99.90
2022-09-24T02:47:37.467Z,99.90
2022-09-24T02:50:04.381Z,99.90
2022-09-24T02:52:30.954Z,99.90
2022-09-24T02:54:57.512Z,99.90
2022-09-24T02:57:24.071Z,99.90
2022-09-24T02:59:52.674Z,99.90
2022-09-24T03:02:19.311Z,99.90
2022-09-24T03:04:47.076Z,99.90
2022-09-24T03:07:16.056Z,99.90
2022-09-24T03:09:44.817Z,99.90
2022-09-24T03:12:12.615Z,99.90
2022-09-24T03:14:39.329Z,99.90
2022-09-24T03:17:05.834Z,99.90
2022-09-24T03:19:32.339Z,99.90
2022-09-24T03:22:03.594Z,99.90
2022-09-24T03:24:35.069Z,99.90
2022-09-24T03:27:04.082Z,99.90
2022-09-24T03:29:49.002Z,99.90
2022-09-24T03:32:15.513Z,99.90
2022-09-24T03:34:44.404Z,99.90
2022-09-24T03:37:10.926Z,99.90
2022-09-24T03:39:37.422Z,99.90
2022-09-24T03:42:04.061Z,99.90
2022-09-24T03:44:30.576Z,99.90
2022-09-24T03:46:57.226Z,99.90
2022-09-24T03:49:24.351Z,99.90
2022-09-24T03:51:50.884Z,99.90
2022-09-24T03:54:17.392Z,99.90
2022-09-24T03:56:43.923Z,99.90
2022-09-24T03:59:10.884Z,99.90
2022-09-24T04:01:39.731Z,99.90
2022-09-24T04:04:06.297Z,99.90
2022-09-24T04:06:32.932Z,99.90
2022-09-24T04:09:01.718Z,99.90
2022-09-24T04:11:28.785Z,99.90
2022-09-24T04:13:55.305Z,99.90
2022-09-24T04:16:24.153Z,99.90
2022-09-24T04:18:55.690Z,99.90
2022-09-24T04:21:22.194Z,99.90
2022-09-24T04:23:48.806Z,99.90
2022-09-24T04:26:15.320Z,99.90
2022-09-24T04:28:42.001Z,99.90
2022-09-24T04:31:09.030Z,99.90
2022-09-24T04:33:35.610Z,99.90
2022-09-24T04:36:02.227Z,99.90
2022-09-24T04:38:28.810Z,99.90
2022-09-24T04:41:03.780Z,99.90
2022-09-24T04:43:30.303Z,99.90
2022-09-24T04:45:58.794Z,99.90
2022-09-24T04:48:27.629Z,99.90
2022-09-24T04:50:54.242Z,99.90
2022-09-24T04:53:20.765Z,99.90
2022-09-24T04:55:49.755Z,99.90
2022-09-24T04:58:16.271Z,99.90
2022-09-24T05:00:43.157Z,99.90
2022-09-24T05:03:12.017Z,99.90
2022-09-24T05:05:38.564Z,99.90
2022-09-24T05:08:05.130Z,99.90
2022-09-24T05:10:33.160Z,99.90
2022-09-24T05:13:02.270Z,99.90
2022-09-24T05:15:28.995Z,99.90
2022-09-24T05:17:55.499Z,99.90
2022-09-24T05:20:22.170Z,99.90
2022-09-24T05:22:51.380Z,99.90
2022-09-24T05:25:19.267Z,99.90
2022-09-24T05:27:53.082Z,99.90
2022-09-24T05:30:20.673Z,99.90
2022-09-24T05:32:51.832Z,99.90
2022-09-24T05:35:21.298Z,99.90
2022-09-24T05:37:49.610Z,99.90
2022-09-24T05:40:34.706Z,99.90
2022-09-24T05:43:01.666Z,99.90
2022-09-24T05:45:31.347Z,99.90
2022-09-24T05:47:59.936Z,99.90
2022-09-24T05:50:29.169Z,99.90
2022-09-24T05:52:56.006Z,99.90
2022-09-24T05:55:22.512Z,99.90
2022-09-24T05:57:51.234Z,99.90
2022-09-24T06:00:20.256Z,99.90
2022-09-24T06:02:46.790Z,99.90
2022-09-24T06:05:14.857Z,99.90
2022-09-24T06:07:41.491Z,99.90
2022-09-24T06:10:08.293Z,99.90
2022-09-24T06:12:35.000Z,99.90
2022-09-24T06:15:01.865Z,99.90
2022-09-24T06:17:28.713Z,99.90
2022-09-24T06:19:55.609Z,99.90
2022-09-24T06:22:26.276Z,99.90
2022-09-24T06:24:57.440Z,99.90
2022-09-24T06:27:24.172Z,99.90
2022-09-24T06:29:50.722Z,99.90
2022-09-24T06:32:19.670Z,99.90
2022-09-24T06:34:46.297Z,99.90
2022-09-24T06:37:12.955Z,99.90
2022-09-24T06:39:39.475Z,99.90
2022-09-24T06:42:08.196Z,99.90
2022-09-24T06:44:37.475Z,99.90
2022-09-24T06:47:04.164Z,99.90
2022-09-24T06:49:34.261Z,99.90
2022-09-24T06:52:01.686Z,99.90
2022-09-24T06:54:28.406Z,99.90
2022-09-24T06:56:57.398Z,99.90
2022-09-24T06:59:26.511Z,99.90
2022-09-24T07:01:53.119Z,99.90
2022-09-24T07:04:19.781Z,99.90
2022-09-24T07:07:04.912Z,99.90
2022-09-24T07:09:31.657Z,99.90
2022-09-24T07:11:58.730Z,99.90
2022-09-24T07:14:25.270Z,99.90
2022-09-24T07:16:54.099Z,99.90
2022-09-24T07:19:20.702Z,99.90
2022-09-24T07:21:49.471Z,99.90
2022-09-24T07:24:16.003Z,99.90
2022-09-24T07:26:42.618Z,99.90
2022-09-24T07:29:09.410Z,99.90
2022-09-24T07:31:36.405Z,99.90
2022-09-24T07:34:05.255Z,99.90
2022-09-24T07:36:31.897Z,99.90
2022-09-24T07:38:58.590Z,99.90
2022-09-24T07:41:25.754Z,99.90
2022-09-24T07:43:52.417Z,99.90
2022-09-24T07:46:20.075Z,99.90
2022-09-24T07:48:48.307Z,99.90
2022-09-24T07:51:15.040Z,99.90
2022-09-24T07:53:41.736Z,99.90
2022-09-24T07:56:08.455Z,99.90
2022-09-24T07:58:37.251Z,99.90
2022-09-24T08:01:03.841Z,99.90
2022-09-24T08:03:30.550Z,99.90
2022-09-24T08:05:57.201Z,99.90
2022-09-24T08:08:23.856Z,99.30
2022-09-24T08:10:50.604Z,98.40
2022-09-24T08:13:17.218Z,98.80
2022-09-24T08:15:43.827Z,99.90
2022-09-24T08:18:10.450Z,99.90
2022-09-24T08:20:37.767Z,99.90
2022-09-24T08:23:05.162Z,99.90
2022-09-24T08:25:31.805Z,99.90
2022-09-24T08:28:02.441Z,99.90
2022-09-24T08:30:30.877Z,99.90
2022-09-24T08:32:57.934Z,99.90
2022-09-24T08:35:24.557Z,99.90
2022-09-24T08:37:53.613Z,99.90
2022-09-24T08:40:22.018Z,99.90
2022-09-24T08:43:11.646Z,99.90
2022-09-24T08:46:01.464Z,99.90
2022-09-24T08:48:33.183Z,99.90
2022-09-24T08:51:02.106Z,99.90
2022-09-24T08:53:33.767Z,99.90
2022-09-24T08:56:01.268Z,99.90
2022-09-24T08:58:30.133Z,99.90
2022-09-24T09:01:06.472Z,99.90
2022-09-24T09:03:33.026Z,99.90
2022-09-24T09:06:02.819Z,99.90
2022-09-24T09:09:13.638Z,99.90
2022-09-24T09:11:42.095Z,99.90
2022-09-24T09:14:11.471Z,99.90
2022-09-24T09:16:49.215Z,99.90
2022-09-24T09:19:18.716Z,99.90
2022-09-24T09:21:53.558Z,99.90
2022-09-24T09:24:23.314Z,99.90
2022-09-24T09:26:51.379Z,99.90
2022-09-24T09:29:18.001Z,99.90
2022-09-24T09:32:03.122Z,99.90
2022-09-24T09:34:36.728Z,99.90
2022-09-24T09:37:03.227Z,99.90
2022-09-24T09:39:37.110Z,99.90
2022-09-24T09:42:03.713Z,99.90
2022-09-24T09:44:31.179Z,99.90
2022-09-24T09:47:06.789Z,99.90
2022-09-24T09:49:36.090Z,99.90
2022-09-24T09:52:04.370Z,99.90
2022-09-24T09:54:37.678Z,99.90
2022-09-24T09:57:06.357Z,99.90
2022-09-24T09:59:35.477Z,99.90
2022-09-24T10:02:02.204Z,99.90
2022-09-24T10:04:29.225Z,99.90
2022-09-24T10:07:08.122Z,99.90
2022-09-24T10:09:35.174Z,99.90
2022-09-24T10:12:24.176Z,99.90
2022-09-24T10:14:57.861Z,99.90
2022-09-24T10:17:27.396Z,99.90
2022-09-24T10:19:56.655Z,99.90
2022-09-24T10:22:24.821Z,99.90
2022-09-24T10:24:53.742Z,99.90
2022-09-24T10:27:24.152Z,99.90
2022-09-24T10:30:12.037Z,99.90
2022-09-24T10:32:39.142Z,99.90
2022-09-24T10:35:19.414Z,99.90
2022-09-24T10:37:53.629Z,99.90
2022-09-24T10:40:24.239Z,99.90
2022-09-24T10:42:59.456Z,99.90
2022-09-24T10:45:44.160Z,99.90
2022-09-24T10:48:26.812Z,99.90
2022-09-24T10:51:12.103Z,99.90
2022-09-24T10:53:53.207Z,99.90
2022-09-24T10:56:21.854Z,99.90
2022-09-24T10:59:00.013Z,99.90
2022-09-24T11:01:29.437Z,99.90
2022-09-24T11:04:18.014Z,99.90
2022-09-24T11:07:14.327Z,99.90
2022-09-24T11:10:01.995Z,99.90
2022-09-24T11:12:35.198Z,99.90
2022-09-24T11:15:14.217Z,99.20
2022-09-24T11:17:40.722Z,99.00
2022-09-24T11:20:18.021Z,98.00
2022-09-24T11:22:56.956Z,98.00
2022-09-24T11:25:26.347Z,97.70
2022-09-24T11:27:59.982Z,98.10
2022-09-24T11:30:33.895Z,97.00
2022-09-24T11:33:01.580Z,96.90
2022-09-24T11:35:46.875Z,96.60
2022-09-24T11:38:19.872Z,96.20
2022-09-24T11:40:53.119Z,96.60
2022-09-24T11:43:19.972Z,95.80
2022-09-24T11:45:51.081Z,94.60
2022-09-24T11:48:20.719Z,94.60
2022-09-24T11:51:05.815Z,94.40
2022-09-24T11:53:50.900Z,94.40
2022-09-24T11:56:20.122Z,94.40
2022-09-24T11:58:46.615Z,94.20
2022-09-24T12:01:17.834Z,92.60
2022-09-24T12:03:47.138Z,90.40
2022-09-24T12:06:17.381Z,91.10
2022-09-24T12:08:48.917Z,91.70
2022-09-24T12:11:15.432Z,91.10
2022-09-24T12:13:53.811Z,90.40
2022-09-24T12:16:33.199Z,91.40
2022-09-24T12:19:03.585Z,91.00
2022-09-24T12:21:32.298Z,90.40
2022-09-24T12:24:03.710Z,90.10
2022-09-24T12:26:35.992Z,90.10
2022-09-24T12:29:27.386Z,90.20
2022-09-24T12:32:31.241Z,88.50
2022-09-24T12:35:03.771Z,84.50
2022-09-24T12:37:33.003Z,87.60
2022-09-24T12:40:08.708Z,87.10
2022-09-24T12:42:37.925Z,88.20
2022-09-24T12:45:04.905Z,87.00
2022-09-24T12:47:33.673Z,86.80
2022-09-24T12:50:02.166Z,86.60
2022-09-24T12:52:34.173Z,85.60
2022-09-24T12:55:04.595Z,85.20
2022-09-24T12:57:54.578Z,85.10
2022-09-24T13:00:38.988Z,84.00
2022-09-24T13:03:25.443Z,82.00
2022-09-24T13:05:52.066Z,83.10
2022-09-24T13:08:22.091Z,82.40
2022-09-24T13:10:56.292Z,82.80
2022-09-24T13:13:25.526Z,83.30
2022-09-24T13:16:18.258Z,83.20
2022-09-24T13:18:52.386Z,82.00
2022-09-24T13:21:24.161Z,82.10
2022-09-24T13:23:51.200Z,83.30
2022-09-24T13:26:20.504Z,83.70
2022-09-24T13:28:48.627Z,82.10
2022-09-24T13:31:21.405Z,82.50
2022-09-24T13:34:17.548Z,82.10
2022-09-24T13:36:44.037Z,81.10
2022-09-24T13:39:16.702Z,82.00
2022-09-24T13:42:01.387Z,80.80
2022-09-24T13:44:31.363Z,80.20
2022-09-24T13:47:06.107Z,80.80
2022-09-24T13:49:36.367Z,79.80
2022-09-24T13:52:17.404Z,79.50
2022-09-24T13:54:50.534Z,78.60
2022-09-24T13:57:21.695Z,79.00
2022-09-24T13:59:48.223Z,78.60
2022-09-24T14:02:22.558Z,77.70
2022-09-24T14:04:53.188Z,78.10
2022-09-24T14:07:22.877Z,78.60
2022-09-24T14:09:51.269Z,77.90
2022-09-24T14:12:21.838Z,76.80
2022-09-24T14:14:53.379Z,77.60
2022-09-24T14:17:20.124Z,76.60
2022-09-24T14:19:47.799Z,77.40
2022-09-24T14:22:25.375Z,76.90
2022-09-24T14:24:51.920Z,78.30
2022-09-24T14:27:21.122Z,76.40
2022-09-24T14:29:54.680Z,74.90
2022-09-24T14:32:27.117Z,75.40
2022-09-24T14:35:00.910Z,76.00
2022-09-24T14:37:31.223Z,75.80
2022-09-24T14:39:59.192Z,76.60
2022-09-24T14:42:45.987Z,77.10
2022-09-24T14:45:25.294Z,76.60
2022-09-24T14:48:06.138Z,76.40
2022-09-24T14:50:36.969Z,76.10
2022-09-24T14:53:11.909Z,74.50
2022-09-24T14:55:39.848Z,75.40
2022-09-24T14:58:24.242Z,74.80
2022-09-24T15:00:54.614Z,74.80
2022-09-24T15:03:28.546Z,75.90
2022-09-24T15:06:02.665Z,75.70
2022-09-24T15:08:29.274Z,75.80
2022-09-24T15:10:57.719Z,76.40
2022-09-24T15:13:25.750Z,76.40
2022-09-24T15:16:23.939Z,76.80
2022-09-24T15:19:09.127Z,76.00
2022-09-24T15:21:35.760Z,77.40
2022-09-24T15:24:02.321Z,76.60
2022-09-24T15:26:30.234Z,77.60
2022-09-24T15:28:59.659Z,77.80
2022-09-24T15:31:26.274Z,78.10
2022-09-24T15:33:53.270Z,77.80
2022-09-24T15:36:20.802Z,77.80
2022-09-24T15:38:51.302Z,78.30
2022-09-24T15:41:20.455Z,77.50
2022-09-24T15:43:47.045Z,77.40
2022-09-24T15:46:13.651Z,77.80
2022-09-24T15:48:40.254Z,77.30
2022-09-24T15:51:11.809Z,76.70
2022-09-24T15:53:41.031Z,77.00
2022-09-24T15:56:08.028Z,77.50
2022-09-24T15:58:34.951Z,78.10
2022-09-24T16:01:01.579Z,78.00
2022-09-24T16:03:29.307Z,78.20
2022-09-24T16:06:01.025Z,78.90
2022-09-24T16:08:27.566Z,79.50
2022-09-24T16:10:54.136Z,80.10
2022-09-24T16:13:23.153Z,80.40
2022-09-24T16:15:49.927Z,80.80
2022-09-24T16:18:17.824Z,81.30
2022-09-24T16:20:46.129Z,81.80
2022-09-24T16:23:14.214Z,82.10
2022-09-24T16:25:55.622Z,83.30
2022-09-24T16:28:22.506Z,82.90
2022-09-24T16:30:49.062Z,83.10
2022-09-24T16:33:17.750Z,83.40
2022-09-24T16:35:44.286Z,84.00
2022-09-24T16:38:11.200Z,84.00
2022-09-24T16:40:38.014Z,84.30
2022-09-24T16:43:04.652Z,84.50
2022-09-24T16:45:31.716Z,84.50
2022-09-24T16:47:58.368Z,84.50
2022-09-24T16:50:25.061Z,84.50
2022-09-24T16:52:54.755Z,84.70
2022-09-24T16:55:24.042Z,85.00
2022-09-24T16:57:53.686Z,85.20
2022-09-24T17:00:20.506Z,85.70
2022-09-24T17:02:47.211Z,85.90
2022-09-24T17:05:13.807Z,86.40
2022-09-24T17:07:40.547Z,86.80
2022-09-24T17:10:13.293Z,87.30
2022-09-24T17:12:41.022Z,87.50
2022-09-24T17:15:10.077Z,87.60
2022-09-24T17:17:44.254Z,87.60
2022-09-24T17:20:15.693Z,88.40
2022-09-24T17:22:44.641Z,89.10
2022-09-24T17:25:11.203Z,89.60
2022-09-24T17:27:39.894Z,90.10
2022-09-24T17:30:07.243Z,90.20
2022-09-24T17:32:33.799Z,90.50
2022-09-24T17:35:00.332Z,90.80
2022-09-24T17:37:27.438Z,91.00
2022-09-24T17:39:56.869Z,91.40
2022-09-24T17:42:25.699Z,91.60
2022-09-24T17:44:52.226Z,91.80
2022-09-24T17:47:18.761Z,91.90
2022-09-24T17:49:45.560Z,92.20
2022-09-24T17:52:13.342Z,92.40
2022-09-24T17:54:44.686Z,92.60
2022-09-24T17:57:11.208Z,92.70
2022-09-24T17:59:39.949Z,92.80
2022-09-24T18:02:06.692Z,92.90
2022-09-24T18:04:38.156Z,92.90
2022-09-24T18:07:04.725Z,93.00
2022-09-24T18:09:31.247Z,93.40
2022-09-24T18:11:58.065Z,93.90
2022-09-24T18:14:27.061Z,94.20
2022-09-24T18:16:55.724Z,94.30
2022-09-24T18:19:22.933Z,94.40
2022-09-24T18:21:51.867Z,94.70
2022-09-24T18:24:18.697Z,94.70
2022-09-24T18:26:48.388Z,94.60
2022-09-24T18:29:17.753Z,94.60
2022-09-24T18:31:44.803Z,94.60
2022-09-24T18:34:13.210Z,94.80
2022-09-24T18:36:40.494Z,95.10
2022-09-24T18:39:11.980Z,95.50
2022-09-24T18:41:39.535Z,95.70
2022-09-24T18:44:06.158Z,95.90
2022-09-24T18:46:33.725Z,96.30
2022-09-24T18:49:00.702Z,96.60
2022-09-24T18:51:29.026Z,97.00
2022-09-24T18:53:56.507Z,97.40
2022-09-24T18:56:24.070Z,98.00
2022-09-24T18:58:57.047Z,98.80
2022-09-24T19:01:23.739Z,99.70
2022-09-24T19:03:50.549Z,99.90
2022-09-24T19:06:17.264Z,99.90
2022-09-24T19:08:43.804Z,99.90
2022-09-24T19:11:11.337Z,99.90
2022-09-24T19:13:38.881Z,99.90
2022-09-24T19:16:06.909Z,99.90
2022-09-24T19:18:34.391Z,99.90
2022-09-24T19:21:01.136Z,99.90
2022-09-24T19:23:27.827Z,99.90
2022-09-24T19:25:59.245Z,99.90
2022-09-24T19:28:25.827Z,99.90
2022-09-24T19:30:53.159Z,99.90
2022-09-24T19:33:19.766Z,99.90
2022-09-24T19:35:54.194Z,99.90
2022-09-24T19:38:28.380Z,99.90
2022-09-24T19:40:55.843Z,99.90
2022-09-24T19:43:22.438Z,99.90
2022-09-24T19:45:58.977Z,99.90
2022-09-24T19:48:26.620Z,99.90
2022-09-24T19:50:53.684Z,99.90
2022-09-24T19:53:20.669Z,99.90
2022-09-24T19:55:47.193Z,99.90
2022-09-24T19:58:16.091Z,99.90
2022-09-24T20:00:43.055Z,99.90
2022-09-24T20:03:11.100Z,99.90
2022-09-24T20:05:40.163Z,99.90
2022-09-24T20:08:06.695Z,99.90
2022-09-24T20:10:35.518Z,99.90
2022-09-24T20:13:02.155Z,99.90
2022-09-24T20:15:29.694Z,99.90
2022-09-24T20:17:56.345Z,99.90
2022-09-24T20:20:25.755Z,99.90
2022-09-24T20:22:52.298Z,99.90
2022-09-24T20:25:18.810Z,99.90
2022-09-24T20:27:51.610Z,99.90
2022-09-24T20:30:23.421Z,99.90
2022-09-24T20:32:50.517Z,99.90
2022-09-24T20:35:17.177Z,99.90
2022-09-24T20:37:43.694Z,99.90
2022-09-24T20:40:10.535Z,99.90
2022-09-24T20:42:38.576Z,99.90
2022-09-24T20:45:10.756Z,99.90
2022-09-24T20:47:38.883Z,99.90
2022-09-24T20:50:05.716Z,99.90
2022-09-24T20:52:33.436Z,99.90
2022-09-24T20:55:02.345Z,99.90
2022-09-24T20:57:28.848Z,99.90
2022-09-24T20:59:57.968Z,99.90
2022-09-24T21:02:24.576Z,99.90
2022-09-24T21:04:53.576Z,99.90
2022-09-24T21:07:22.559Z,99.90
2022-09-24T21:09:49.154Z,99.90
2022-09-24T21:12:15.642Z,99.90
2022-09-24T21:14:42.195Z,99.90
2022-09-24T21:17:10.121Z,99.90
2022-09-24T21:19:36.635Z,99.90
2022-09-24T21:22:03.294Z,99.90
2022-09-24T21:24:31.586Z,99.90
2022-09-24T21:26:59.333Z,99.90
2022-09-24T21:29:28.150Z,99.90
2022-09-24T21:31:54.666Z,99.90
2022-09-24T21:34:23.393Z,99.90
2022-09-24T21:36:53.084Z,99.90
2022-09-24T21:39:20.630Z,99.90
2022-09-24T21:41:54.810Z,99.90
2022-09-24T21:44:21.760Z,99.90
2022-09-24T21:46:52.042Z,99.90
2022-09-24T21:49:21.098Z,99.90
2022-09-24T21:51:47.660Z,99.90
2022-09-24T21:54:16.135Z,99.90
2022-09-24T21:56:43.113Z,99.90
2022-09-24T21:59:35.772Z,99.90
2022-09-24T22:02:08.537Z,99.90
2022-09-24T22:04:35.181Z,99.90
2022-09-24T22:07:02.081Z,99.90
2022-09-24T22:09:32.124Z,99.90
2022-09-24T22:12:00.406Z,99.90
2022-09-24T22:14:27.149Z,99.90
2022-09-24T22:16:54.124Z,99.90
2022-09-24T22:19:20.737Z,99.90
2022-09-24T22:21:47.335Z,99.90
2022-09-24T22:24:14.827Z,99.90
2022-09-24T22:26:41.364Z,99.90
2022-09-24T22:29:08.009Z,99.90
2022-09-24T22:31:34.534Z,99.90
2022-09-24T22:34:19.995Z,99.90
2022-09-24T22:36:47.927Z,99.90
2022-09-24T22:39:15.410Z,99.90
2022-09-24T22:41:44.378Z,99.90
2022-09-24T22:44:13.448Z,99.90
2022-09-24T22:46:41.177Z,99.90
2022-09-24T22:49:07.842Z,99.90
2022-09-24T22:51:38.377Z,99.90
2022-09-24T22:54:05.234Z,99.90
2022-09-24T22:56:31.794Z,99.90
2022-09-24T22:58:59.760Z,99.90
2022-09-24T23:01:31.353Z,99.90
2022-09-24T23:04:00.419Z,99.90
2022-09-24T23:06:26.969Z,99.90
2022-09-24T23:08:54.732Z,99.90
2022-09-24T23:11:23.111Z,99.90
2022-09-24T23:13:53.691Z,99.90
2022-09-24T23:16:21.762Z,99.90
2022-09-24T23:18:49.149Z,99.90
2022-09-24T23:21:16.312Z,99.90
2022-09-24T23:23:45.721Z,99.90
2022-09-24T23:26:17.314Z,99.90
2022-09-24T23:28:44.265Z,99.90
2022-09-24T23:31:11.812Z,99.90
2022-09-24T23:33:41.823Z,99.90
2022-09-24T23:36:11.752Z,99.90
2022-09-24T23:38:41.238Z,99.90
2022-09-24T23:41:11.088Z,99.90
2022-09-24T23:43:37.694Z,99.90
2022-09-24T23:46:04.697Z,99.90
2022-09-24T23:48:31.505Z,99.90
2022-09-24T23:51:01.020Z,99.90
2022-09-24T23:53:27.668Z,99.90
2022-09-24T23:55:54.893Z,99.90
2022-09-24T23:58:22.568Z,99.90
